sensor_id;sensor_type;location;lat;lon;timestamp;P1;durP1;ratioP1;P2;durP2;ratioP2
10191;SDS011;17580;50.850;4.504;2023-12-22T00:00:24;12.73;;;3.37;;
10191;SDS011;17580;50.850;4.504;2023-12-22T00:02:51;14.13;;;3.07;;
10191;SDS011;17580;50.850;4.504;2023-12-22T00:05:18;10.57;;;2.93;;
10191;SDS011;17580;50.850;4.504;2023-12-22T00:07:45;9.63;;;3.17;;
10191;SDS011;17580;50.850;4.504;2023-12-22T00:10:13;11.50;;;3.03;;
10191;SDS011;17580;50.850;4.504;2023-12-22T00:12:41;8.57;;;2.60;;
10191;SDS011;17580;50.850;4.504;2023-12-22T00:15:09;11.43;;;3.27;;
10191;SDS011;17580;50.850;4.504;2023-12-22T00:17:36;11.47;;;3.43;;
10191;SDS011;17580;50.850;4.504;2023-12-22T00:20:04;17.97;;;3.80;;
10191;SDS011;17580;50.850;4.504;2023-12-22T00:22:31;15.83;;;3.30;;
10191;SDS011;17580;50.850;4.504;2023-12-22T00:24:59;11.07;;;2.73;;
10191;SDS011;17580;50.850;4.504;2023-12-22T00:27:27;10.70;;;2.83;;
10191;SDS011;17580;50.850;4.504;2023-12-22T00:29:56;7.43;;;2.50;;
10191;SDS011;17580;50.850;4.504;2023-12-22T00:32:23;10.27;;;3.00;;
10191;SDS011;17580;50.850;4.504;2023-12-22T00:34:50;11.03;;;2.97;;
10191;SDS011;17580;50.850;4.504;2023-12-22T00:37:18;7.37;;;2.40;;
10191;SDS011;17580;50.850;4.504;2023-12-22T00:39:45;8.30;;;2.40;;
10191;SDS011;17580;50.850;4.504;2023-12-22T00:42:12;9.93;;;3.30;;
10191;SDS011;17580;50.850;4.504;2023-12-22T00:44:40;7.10;;;2.53;;
10191;SDS011;17580;50.850;4.504;2023-12-22T00:47:08;11.77;;;3.07;;
10191;SDS011;17580;50.850;4.504;2023-12-22T00:49:36;16.70;;;3.20;;
10191;SDS011;17580;50.850;4.504;2023-12-22T00:52:04;10.37;;;2.50;;
10191;SDS011;17580;50.850;4.504;2023-12-22T00:54:31;12.90;;;3.47;;
10191;SDS011;17580;50.850;4.504;2023-12-22T00:56:58;12.33;;;3.07;;
10191;SDS011;17580;50.850;4.504;2023-12-22T00:59:26;11.43;;;3.87;;
10191;SDS011;17580;50.850;4.504;2023-12-22T01:01:53;7.90;;;2.93;;
10191;SDS011;17580;50.850;4.504;2023-12-22T01:04:22;14.20;;;3.17;;
10191;SDS011;17580;50.850;4.504;2023-12-22T01:06:49;12.20;;;3.60;;
10191;SDS011;17580;50.850;4.504;2023-12-22T01:09:18;14.57;;;3.57;;
10191;SDS011;17580;50.850;4.504;2023-12-22T01:11:45;13.50;;;3.20;;
10191;SDS011;17580;50.850;4.504;2023-12-22T01:14:13;11.90;;;2.80;;
10191;SDS011;17580;50.850;4.504;2023-12-22T01:16:40;13.00;;;3.73;;
10191;SDS011;17580;50.850;4.504;2023-12-22T01:19:07;13.83;;;3.23;;
10191;SDS011;17580;50.850;4.504;2023-12-22T01:21:36;13.67;;;3.50;;
10191;SDS011;17580;50.850;4.504;2023-12-22T01:24:03;15.60;;;4.17;;
10191;SDS011;17580;50.850;4.504;2023-12-22T01:26:31;11.03;;;3.27;;
10191;SDS011;17580;50.850;4.504;2023-12-22T01:28:58;14.17;;;4.07;;
10191;SDS011;17580;50.850;4.504;2023-12-22T01:31:26;12.57;;;3.03;;
10191;SDS011;17580;50.850;4.504;2023-12-22T01:33:53;16.63;;;4.43;;
10191;SDS011;17580;50.850;4.504;2023-12-22T01:36:20;14.77;;;3.13;;
10191;SDS011;17580;50.850;4.504;2023-12-22T01:38:49;11.17;;;3.13;;
10191;SDS011;17580;50.850;4.504;2023-12-22T01:41:16;15.70;;;3.87;;
10191;SDS011;17580;50.850;4.504;2023-12-22T01:43:43;11.50;;;3.47;;
10191;SDS011;17580;50.850;4.504;2023-12-22T01:46:11;15.83;;;3.77;;
10191;SDS011;17580;50.850;4.504;2023-12-22T01:48:38;21.87;;;5.23;;
10191;SDS011;17580;50.850;4.504;2023-12-22T01:51:06;13.57;;;3.70;;
10191;SDS011;17580;50.850;4.504;2023-12-22T01:53:34;15.67;;;4.73;;
10191;SDS011;17580;50.850;4.504;2023-12-22T01:56:03;13.90;;;3.90;;
10191;SDS011;17580;50.850;4.504;2023-12-22T01:58:31;13.53;;;3.73;;
10191;SDS011;17580;50.850;4.504;2023-12-22T02:01:00;16.13;;;3.77;;
10191;SDS011;17580;50.850;4.504;2023-12-22T02:03:28;12.30;;;2.87;;
10191;SDS011;17580;50.850;4.504;2023-12-22T02:05:55;11.87;;;3.83;;
10191;SDS011;17580;50.850;4.504;2023-12-22T02:08:23;15.63;;;3.30;;
10191;SDS011;17580;50.850;4.504;2023-12-22T02:10:51;13.70;;;3.60;;
10191;SDS011;17580;50.850;4.504;2023-12-22T02:13:20;12.83;;;4.03;;
10191;SDS011;17580;50.850;4.504;2023-12-22T02:15:47;9.30;;;3.77;;
10191;SDS011;17580;50.850;4.504;2023-12-22T02:18:16;14.70;;;3.47;;
10191;SDS011;17580;50.850;4.504;2023-12-22T02:20:44;17.60;;;4.10;;
10191;SDS011;17580;50.850;4.504;2023-12-22T02:23:12;11.97;;;3.47;;
10191;SDS011;17580;50.850;4.504;2023-12-22T02:25:40;17.83;;;4.23;;
10191;SDS011;17580;50.850;4.504;2023-12-22T02:28:07;15.67;;;3.60;;
10191;SDS011;17580;50.850;4.504;2023-12-22T02:30:38;13.40;;;4.13;;
10191;SDS011;17580;50.850;4.504;2023-12-22T02:33:06;14.23;;;3.60;;
10191;SDS011;17580;50.850;4.504;2023-12-22T02:35:35;14.70;;;3.43;;
10191;SDS011;17580;50.850;4.504;2023-12-22T02:38:03;13.13;;;3.60;;
10191;SDS011;17580;50.850;4.504;2023-12-22T02:40:32;18.60;;;4.07;;
10191;SDS011;17580;50.850;4.504;2023-12-22T02:43:00;12.07;;;3.20;;
10191;SDS011;17580;50.850;4.504;2023-12-22T02:45:28;15.17;;;3.73;;
10191;SDS011;17580;50.850;4.504;2023-12-22T02:47:57;13.10;;;3.50;;
10191;SDS011;17580;50.850;4.504;2023-12-22T02:50:24;18.30;;;4.43;;
10191;SDS011;17580;50.850;4.504;2023-12-22T02:52:52;13.80;;;3.33;;
10191;SDS011;17580;50.850;4.504;2023-12-22T02:55:19;11.37;;;3.10;;
10191;SDS011;17580;50.850;4.504;2023-12-22T02:57:48;10.10;;;2.63;;
10191;SDS011;17580;50.850;4.504;2023-12-22T03:00:15;8.40;;;2.30;;
10191;SDS011;17580;50.850;4.504;2023-12-22T03:02:43;19.77;;;3.10;;
10191;SDS011;17580;50.850;4.504;2023-12-22T03:05:10;10.93;;;2.73;;
10191;SDS011;17580;50.850;4.504;2023-12-22T03:07:37;9.47;;;2.93;;
10191;SDS011;17580;50.850;4.504;2023-12-22T03:10:05;10.43;;;2.80;;
10191;SDS011;17580;50.850;4.504;2023-12-22T03:12:32;5.53;;;1.80;;
10191;SDS011;17580;50.850;4.504;2023-12-22T03:15:01;8.93;;;2.20;;
10191;SDS011;17580;50.850;4.504;2023-12-22T03:17:29;6.50;;;2.10;;
10191;SDS011;17580;50.850;4.504;2023-12-22T03:19:56;6.87;;;2.40;;
10191;SDS011;17580;50.850;4.504;2023-12-22T03:22:24;9.60;;;2.30;;
10191;SDS011;17580;50.850;4.504;2023-12-22T03:24:51;6.17;;;2.60;;
10191;SDS011;17580;50.850;4.504;2023-12-22T03:27:18;9.07;;;3.57;;
10191;SDS011;17580;50.850;4.504;2023-12-22T03:29:46;11.63;;;2.87;;
10191;SDS011;17580;50.850;4.504;2023-12-22T03:32:14;8.70;;;2.43;;
10191;SDS011;17580;50.850;4.504;2023-12-22T03:34:42;11.50;;;3.30;;
10191;SDS011;17580;50.850;4.504;2023-12-22T03:37:09;15.23;;;3.40;;
10191;SDS011;17580;50.850;4.504;2023-12-22T03:39:36;11.20;;;3.40;;
10191;SDS011;17580;50.850;4.504;2023-12-22T03:42:04;12.27;;;3.93;;
10191;SDS011;17580;50.850;4.504;2023-12-22T03:44:31;13.13;;;3.70;;
10191;SDS011;17580;50.850;4.504;2023-12-22T03:46:58;12.10;;;3.60;;
10191;SDS011;17580;50.850;4.504;2023-12-22T03:49:27;11.40;;;3.50;;
10191;SDS011;17580;50.850;4.504;2023-12-22T03:51:55;15.33;;;3.20;;
10191;SDS011;17580;50.850;4.504;2023-12-22T03:54:22;12.60;;;3.40;;
10191;SDS011;17580;50.850;4.504;2023-12-22T03:56:49;15.57;;;3.17;;
10191;SDS011;17580;50.850;4.504;2023-12-22T03:59:17;15.73;;;2.97;;
10191;SDS011;17580;50.850;4.504;2023-12-22T04:01:50;11.70;;;3.20;;
10191;SDS011;17580;50.850;4.504;2023-12-22T04:04:18;11.40;;;2.67;;
10191;SDS011;17580;50.850;4.504;2023-12-22T04:06:48;12.13;;;3.20;;
10191;SDS011;17580;50.850;4.504;2023-12-22T04:09:16;15.57;;;3.30;;
10191;SDS011;17580;50.850;4.504;2023-12-22T04:11:43;8.37;;;2.37;;
10191;SDS011;17580;50.850;4.504;2023-12-22T04:14:10;12.17;;;2.97;;
10191;SDS011;17580;50.850;4.504;2023-12-22T04:16:37;9.13;;;2.97;;
10191;SDS011;17580;50.850;4.504;2023-12-22T04:19:05;12.57;;;3.53;;
10191;SDS011;17580;50.850;4.504;2023-12-22T04:21:32;11.63;;;3.10;;
10191;SDS011;17580;50.850;4.504;2023-12-22T04:24:01;17.10;;;3.70;;
10191;SDS011;17580;50.850;4.504;2023-12-22T04:26:29;11.47;;;3.23;;
10191;SDS011;17580;50.850;4.504;2023-12-22T04:28:56;13.57;;;3.67;;
10191;SDS011;17580;50.850;4.504;2023-12-22T04:31:24;9.83;;;3.43;;
10191;SDS011;17580;50.850;4.504;2023-12-22T04:33:51;17.77;;;3.40;;
10191;SDS011;17580;50.850;4.504;2023-12-22T04:36:18;15.23;;;3.47;;
10191;SDS011;17580;50.850;4.504;2023-12-22T04:38:46;14.47;;;3.30;;
10191;SDS011;17580;50.850;4.504;2023-12-22T04:41:14;16.60;;;4.07;;
10191;SDS011;17580;50.850;4.504;2023-12-22T04:43:42;18.03;;;3.87;;
10191;SDS011;17580;50.850;4.504;2023-12-22T04:46:09;15.50;;;3.57;;
10191;SDS011;17580;50.850;4.504;2023-12-22T04:48:36;14.43;;;4.23;;
10191;SDS011;17580;50.850;4.504;2023-12-22T04:51:04;26.03;;;5.10;;
10191;SDS011;17580;50.850;4.504;2023-12-22T04:53:31;17.93;;;4.47;;
10191;SDS011;17580;50.850;4.504;2023-12-22T04:55:58;16.50;;;4.27;;
10191;SDS011;17580;50.850;4.504;2023-12-22T04:58:27;15.57;;;4.60;;
10191;SDS011;17580;50.850;4.504;2023-12-22T05:00:55;14.00;;;3.70;;
10191;SDS011;17580;50.850;4.504;2023-12-22T05:03:22;14.93;;;4.40;;
10191;SDS011;17580;50.850;4.504;2023-12-22T05:05:49;15.90;;;3.73;;
10191;SDS011;17580;50.850;4.504;2023-12-22T05:08:16;17.40;;;4.73;;
10191;SDS011;17580;50.850;4.504;2023-12-22T05:10:44;17.27;;;4.00;;
10191;SDS011;17580;50.850;4.504;2023-12-22T05:13:11;13.80;;;4.53;;
10191;SDS011;17580;50.850;4.504;2023-12-22T05:15:40;17.37;;;4.17;;
10191;SDS011;17580;50.850;4.504;2023-12-22T05:18:07;15.57;;;3.77;;
10191;SDS011;17580;50.850;4.504;2023-12-22T05:20:35;19.77;;;4.40;;
10191;SDS011;17580;50.850;4.504;2023-12-22T05:23:02;24.37;;;5.07;;
10191;SDS011;17580;50.850;4.504;2023-12-22T05:25:29;18.60;;;4.73;;
10191;SDS011;17580;50.850;4.504;2023-12-22T05:27:57;22.13;;;4.97;;
10191;SDS011;17580;50.850;4.504;2023-12-22T05:30:25;14.20;;;3.70;;
10191;SDS011;17580;50.850;4.504;2023-12-22T05:32:53;17.63;;;4.43;;
10191;SDS011;17580;50.850;4.504;2023-12-22T05:35:21;22.93;;;5.17;;
10191;SDS011;17580;50.850;4.504;2023-12-22T05:37:48;17.67;;;4.43;;
10191;SDS011;17580;50.850;4.504;2023-12-22T05:40:15;19.47;;;5.47;;
10191;SDS011;17580;50.850;4.504;2023-12-22T05:42:43;19.60;;;4.67;;
10191;SDS011;17580;50.850;4.504;2023-12-22T05:45:10;24.23;;;4.80;;
10191;SDS011;17580;50.850;4.504;2023-12-22T05:47:37;23.43;;;5.47;;
10191;SDS011;17580;50.850;4.504;2023-12-22T05:50:07;15.57;;;3.87;;
10191;SDS011;17580;50.850;4.504;2023-12-22T05:52:35;18.90;;;5.40;;
10191;SDS011;17580;50.850;4.504;2023-12-22T05:55:03;17.07;;;5.47;;
10191;SDS011;17580;50.850;4.504;2023-12-22T05:57:30;16.67;;;4.27;;
10191;SDS011;17580;50.850;4.504;2023-12-22T05:59:58;20.97;;;5.53;;
10191;SDS011;17580;50.850;4.504;2023-12-22T06:02:25;22.90;;;5.37;;
10191;SDS011;17580;50.850;4.504;2023-12-22T06:04:52;16.07;;;4.43;;
10191;SDS011;17580;50.850;4.504;2023-12-22T06:07:21;20.45;;;5.85;;
10191;SDS011;17580;50.850;4.504;2023-12-22T06:09:49;17.20;;;5.13;;
10191;SDS011;17580;50.850;4.504;2023-12-22T06:12:16;16.47;;;4.30;;
10191;SDS011;17580;50.850;4.504;2023-12-22T06:14:43;19.50;;;3.73;;
10191;SDS011;17580;50.850;4.504;2023-12-22T06:17:11;13.00;;;4.47;;
10191;SDS011;17580;50.850;4.504;2023-12-22T06:19:38;18.90;;;4.03;;
10191;SDS011;17580;50.850;4.504;2023-12-22T06:22:05;18.70;;;4.43;;
10191;SDS011;17580;50.850;4.504;2023-12-22T06:24:35;18.73;;;4.13;;
10191;SDS011;17580;50.850;4.504;2023-12-22T06:27:03;27.30;;;4.57;;
10191;SDS011;17580;50.850;4.504;2023-12-22T06:29:31;10.93;;;3.40;;
10191;SDS011;17580;50.850;4.504;2023-12-22T06:31:59;16.40;;;4.27;;
10191;SDS011;17580;50.850;4.504;2023-12-22T06:34:26;15.43;;;4.17;;
10191;SDS011;17580;50.850;4.504;2023-12-22T06:36:53;16.67;;;4.07;;
10191;SDS011;17580;50.850;4.504;2023-12-22T06:39:21;19.33;;;5.50;;
10191;SDS011;17580;50.850;4.504;2023-12-22T06:41:49;12.33;;;2.90;;
10191;SDS011;17580;50.850;4.504;2023-12-22T06:44:16;16.60;;;3.47;;
10191;SDS011;17580;50.850;4.504;2023-12-22T06:46:44;12.33;;;2.90;;
10191;SDS011;17580;50.850;4.504;2023-12-22T06:49:12;12.00;;;3.33;;
10191;SDS011;17580;50.850;4.504;2023-12-22T06:51:40;14.70;;;3.67;;
10191;SDS011;17580;50.850;4.504;2023-12-22T06:54:07;15.43;;;3.77;;
10191;SDS011;17580;50.850;4.504;2023-12-22T06:56:34;7.97;;;3.07;;
10191;SDS011;17580;50.850;4.504;2023-12-22T06:59:03;10.67;;;2.63;;
10191;SDS011;17580;50.850;4.504;2023-12-22T07:01:31;11.53;;;3.07;;
10191;SDS011;17580;50.850;4.504;2023-12-22T07:03:59;10.40;;;2.97;;
10191;SDS011;17580;50.850;4.504;2023-12-22T07:06:27;13.37;;;3.60;;
10191;SDS011;17580;50.850;4.504;2023-12-22T07:08:57;8.17;;;2.63;;
10191;SDS011;17580;50.850;4.504;2023-12-22T07:11:46;11.17;;;2.67;;
10191;SDS011;17580;50.850;4.504;2023-12-22T07:14:15;6.53;;;2.30;;
10191;SDS011;17580;50.850;4.504;2023-12-22T07:16:42;6.67;;;2.90;;
10191;SDS011;17580;50.850;4.504;2023-12-22T07:19:10;7.17;;;2.27;;
10191;SDS011;17580;50.850;4.504;2023-12-22T07:21:38;4.03;;;2.10;;
10191;SDS011;17580;50.850;4.504;2023-12-22T07:24:05;7.70;;;2.00;;
10191;SDS011;17580;50.850;4.504;2023-12-22T07:26:33;7.30;;;2.57;;
10191;SDS011;17580;50.850;4.504;2023-12-22T07:29:00;4.67;;;1.70;;
10191;SDS011;17580;50.850;4.504;2023-12-22T07:31:29;6.43;;;2.40;;
10191;SDS011;17580;50.850;4.504;2023-12-22T07:33:56;5.23;;;2.20;;
10191;SDS011;17580;50.850;4.504;2023-12-22T07:36:23;8.93;;;2.33;;
10191;SDS011;17580;50.850;4.504;2023-12-22T07:38:51;5.57;;;2.33;;
10191;SDS011;17580;50.850;4.504;2023-12-22T07:41:19;5.27;;;2.20;;
10191;SDS011;17580;50.850;4.504;2023-12-22T07:43:47;4.27;;;2.30;;
10191;SDS011;17580;50.850;4.504;2023-12-22T07:46:16;5.33;;;2.13;;
10191;SDS011;17580;50.850;4.504;2023-12-22T07:48:45;7.47;;;2.30;;
10191;SDS011;17580;50.850;4.504;2023-12-22T07:51:12;5.47;;;2.00;;
10191;SDS011;17580;50.850;4.504;2023-12-22T07:53:40;3.23;;;1.87;;
10191;SDS011;17580;50.850;4.504;2023-12-22T07:56:08;3.47;;;1.63;;
10191;SDS011;17580;50.850;4.504;2023-12-22T07:58:35;9.90;;;2.00;;
10191;SDS011;17580;50.850;4.504;2023-12-22T08:01:03;4.50;;;1.90;;
10191;SDS011;17580;50.850;4.504;2023-12-22T08:03:31;2.53;;;1.30;;
10191;SDS011;17580;50.850;4.504;2023-12-22T08:06:00;6.50;;;1.97;;
10191;SDS011;17580;50.850;4.504;2023-12-22T08:08:28;2.97;;;1.53;;
10191;SDS011;17580;50.850;4.504;2023-12-22T08:10:55;4.13;;;1.47;;
10191;SDS011;17580;50.850;4.504;2023-12-22T08:13:23;1.80;;;1.30;;
10191;SDS011;17580;50.850;4.504;2023-12-22T08:15:50;4.83;;;1.27;;
10191;SDS011;17580;50.850;4.504;2023-12-22T08:18:18;2.03;;;1.37;;
10191;SDS011;17580;50.850;4.504;2023-12-22T08:20:45;5.90;;;1.53;;
10191;SDS011;17580;50.850;4.504;2023-12-22T08:23:16;2.50;;;1.73;;
10191;SDS011;17580;50.850;4.504;2023-12-22T08:25:43;2.90;;;1.87;;
10191;SDS011;17580;50.850;4.504;2023-12-22T08:28:10;1.70;;;1.60;;
10191;SDS011;17580;50.850;4.504;2023-12-22T08:30:38;3.67;;;1.90;;
10191;SDS011;17580;50.850;4.504;2023-12-22T08:33:05;2.47;;;1.63;;
10191;SDS011;17580;50.850;4.504;2023-12-22T08:35:33;2.60;;;1.83;;
10191;SDS011;17580;50.850;4.504;2023-12-22T08:38:00;1.90;;;1.67;;
10191;SDS011;17580;50.850;4.504;2023-12-22T08:40:29;1.83;;;1.67;;
10191;SDS011;17580;50.850;4.504;2023-12-22T08:42:56;2.70;;;2.10;;
10191;SDS011;17580;50.850;4.504;2023-12-22T08:45:25;1.90;;;1.80;;
10191;SDS011;17580;50.850;4.504;2023-12-22T08:47:53;2.10;;;1.83;;
10191;SDS011;17580;50.850;4.504;2023-12-22T08:50:21;1.97;;;1.87;;
10191;SDS011;17580;50.850;4.504;2023-12-22T08:52:49;3.50;;;2.33;;
10191;SDS011;17580;50.850;4.504;2023-12-22T08:55:16;2.30;;;2.10;;
10191;SDS011;17580;50.850;4.504;2023-12-22T08:57:45;3.53;;;2.83;;
10191;SDS011;17580;50.850;4.504;2023-12-22T09:00:13;2.40;;;2.20;;
10191;SDS011;17580;50.850;4.504;2023-12-22T09:02:40;4.30;;;2.70;;
10191;SDS011;17580;50.850;4.504;2023-12-22T09:05:08;3.17;;;2.50;;
10191;SDS011;17580;50.850;4.504;2023-12-22T09:07:35;3.87;;;2.77;;
10191;SDS011;17580;50.850;4.504;2023-12-22T09:10:02;2.33;;;2.17;;
10191;SDS011;17580;50.850;4.504;2023-12-22T09:12:30;2.50;;;2.30;;
10191;SDS011;17580;50.850;4.504;2023-12-22T09:14:58;4.13;;;2.33;;
10191;SDS011;17580;50.850;4.504;2023-12-22T09:17:26;3.60;;;2.90;;
10191;SDS011;17580;50.850;4.504;2023-12-22T09:19:53;3.00;;;2.63;;
10191;SDS011;17580;50.850;4.504;2023-12-22T09:22:21;5.33;;;2.27;;
10191;SDS011;17580;50.850;4.504;2023-12-22T09:24:49;3.80;;;2.20;;
10191;SDS011;17580;50.850;4.504;2023-12-22T09:27:16;4.20;;;2.47;;
10191;SDS011;17580;50.850;4.504;2023-12-22T09:29:43;3.17;;;2.37;;
10191;SDS011;17580;50.850;4.504;2023-12-22T09:32:12;7.10;;;2.73;;
10191;SDS011;17580;50.850;4.504;2023-12-22T09:34:39;3.03;;;2.33;;
10191;SDS011;17580;50.850;4.504;2023-12-22T09:37:07;3.53;;;2.00;;
10191;SDS011;17580;50.850;4.504;2023-12-22T09:39:34;3.47;;;1.60;;
10191;SDS011;17580;50.850;4.504;2023-12-22T09:42:02;4.53;;;1.90;;
10191;SDS011;17580;50.850;4.504;2023-12-22T09:44:31;6.30;;;2.23;;
10191;SDS011;17580;50.850;4.504;2023-12-22T09:46:59;5.13;;;2.37;;
10191;SDS011;17580;50.850;4.504;2023-12-22T09:49:28;4.30;;;1.87;;
10191;SDS011;17580;50.850;4.504;2023-12-22T09:51:55;3.80;;;1.53;;
10191;SDS011;17580;50.850;4.504;2023-12-22T09:54:24;3.33;;;1.60;;
10191;SDS011;17580;50.850;4.504;2023-12-22T09:56:51;3.73;;;1.80;;
10191;SDS011;17580;50.850;4.504;2023-12-22T09:59:19;3.47;;;1.57;;
10191;SDS011;17580;50.850;4.504;2023-12-22T10:01:47;5.53;;;1.63;;
10191;SDS011;17580;50.850;4.504;2023-12-22T10:04:16;4.77;;;1.43;;
10191;SDS011;17580;50.850;4.504;2023-12-22T10:06:45;3.23;;;1.33;;
10191;SDS011;17580;50.850;4.504;2023-12-22T10:09:14;4.60;;;1.43;;
10191;SDS011;17580;50.850;4.504;2023-12-22T10:11:42;2.13;;;1.27;;
10191;SDS011;17580;50.850;4.504;2023-12-22T10:14:10;2.83;;;1.50;;
10191;SDS011;17580;50.850;4.504;2023-12-22T10:16:38;2.70;;;1.30;;
10191;SDS011;17580;50.850;4.504;2023-12-22T10:19:06;1.47;;;1.13;;
10191;SDS011;17580;50.850;4.504;2023-12-22T10:21:34;6.00;;;1.40;;
10191;SDS011;17580;50.850;4.504;2023-12-22T10:24:02;2.30;;;1.50;;
10191;SDS011;17580;50.850;4.504;2023-12-22T10:26:30;2.27;;;1.43;;
10191;SDS011;17580;50.850;4.504;2023-12-22T10:28:57;2.70;;;1.70;;
10191;SDS011;17580;50.850;4.504;2023-12-22T10:31:25;7.83;;;1.70;;
10191;SDS011;17580;50.850;4.504;2023-12-22T10:33:53;3.87;;;1.50;;
10191;SDS011;17580;50.850;4.504;2023-12-22T10:36:20;2.50;;;1.40;;
10191;SDS011;17580;50.850;4.504;2023-12-22T10:38:48;3.70;;;1.10;;
10191;SDS011;17580;50.850;4.504;2023-12-22T10:41:17;3.83;;;1.30;;
10191;SDS011;17580;50.850;4.504;2023-12-22T10:43:44;2.63;;;1.30;;
10191;SDS011;17580;50.850;4.504;2023-12-22T10:46:11;3.17;;;1.37;;
10191;SDS011;17580;50.850;4.504;2023-12-22T10:48:39;3.10;;;1.40;;
10191;SDS011;17580;50.850;4.504;2023-12-22T10:51:08;4.63;;;2.03;;
10191;SDS011;17580;50.850;4.504;2023-12-22T10:53:40;4.23;;;1.57;;
10191;SDS011;17580;50.850;4.504;2023-12-22T10:56:07;2.93;;;1.73;;
10191;SDS011;17580;50.850;4.504;2023-12-22T10:58:36;1.97;;;1.80;;
10191;SDS011;17580;50.850;4.504;2023-12-22T11:01:04;4.17;;;1.50;;
10191;SDS011;17580;50.850;4.504;2023-12-22T11:03:32;5.20;;;2.53;;
10191;SDS011;17580;50.850;4.504;2023-12-22T11:06:00;1.90;;;1.77;;
10191;SDS011;17580;50.850;4.504;2023-12-22T11:08:29;3.17;;;1.80;;
10191;SDS011;17580;50.850;4.504;2023-12-22T11:10:57;3.27;;;1.53;;
10191;SDS011;17580;50.850;4.504;2023-12-22T11:13:25;2.10;;;1.43;;
10191;SDS011;17580;50.850;4.504;2023-12-22T11:15:54;1.67;;;1.40;;
10191;SDS011;17580;50.850;4.504;2023-12-22T11:18:22;2.57;;;1.40;;
10191;SDS011;17580;50.850;4.504;2023-12-22T11:20:49;4.13;;;1.67;;
10191;SDS011;17580;50.850;4.504;2023-12-22T11:23:17;1.40;;;1.30;;
10191;SDS011;17580;50.850;4.504;2023-12-22T11:25:45;2.20;;;1.57;;
10191;SDS011;17580;50.850;4.504;2023-12-22T11:28:16;1.20;;;1.10;;
10191;SDS011;17580;50.850;4.504;2023-12-22T11:30:47;2.37;;;1.20;;
10191;SDS011;17580;50.850;4.504;2023-12-22T11:33:17;5.17;;;1.77;;
10191;SDS011;17580;50.850;4.504;2023-12-22T11:35:45;5.80;;;1.57;;
10191;SDS011;17580;50.850;4.504;2023-12-22T11:38:13;3.03;;;1.53;;
10191;SDS011;17580;50.850;4.504;2023-12-22T11:40:40;1.83;;;1.10;;
10191;SDS011;17580;50.850;4.504;2023-12-22T11:43:08;5.10;;;1.50;;
10191;SDS011;17580;50.850;4.504;2023-12-22T11:45:35;2.73;;;1.00;;
10191;SDS011;17580;50.850;4.504;2023-12-22T11:48:07;1.33;;;1.20;;
10191;SDS011;17580;50.850;4.504;2023-12-22T11:50:36;4.93;;;1.60;;
10191;SDS011;17580;50.850;4.504;2023-12-22T11:53:17;4.47;;;1.43;;
10191;SDS011;17580;50.850;4.504;2023-12-22T11:55:57;3.00;;;1.20;;
10191;SDS011;17580;50.850;4.504;2023-12-22T11:58:34;2.73;;;1.60;;
10191;SDS011;17580;50.850;4.504;2023-12-22T12:01:02;1.80;;;1.00;;
10191;SDS011;17580;50.850;4.504;2023-12-22T12:03:30;2.27;;;1.27;;
10191;SDS011;17580;50.850;4.504;2023-12-22T12:06:11;3.00;;;1.33;;
10191;SDS011;17580;50.850;4.504;2023-12-22T12:08:38;2.00;;;1.50;;
10191;SDS011;17580;50.850;4.504;2023-12-22T12:11:07;2.00;;;1.33;;
10191;SDS011;17580;50.850;4.504;2023-12-22T12:13:34;1.40;;;1.30;;
10191;SDS011;17580;50.850;4.504;2023-12-22T12:16:03;1.40;;;1.30;;
10191;SDS011;17580;50.850;4.504;2023-12-22T12:18:33;1.53;;;1.10;;
10191;SDS011;17580;50.850;4.504;2023-12-22T12:21:01;1.43;;;1.30;;
10191;SDS011;17580;50.850;4.504;2023-12-22T12:23:30;2.47;;;1.60;;
10191;SDS011;17580;50.850;4.504;2023-12-22T12:25:59;4.53;;;1.57;;
10191;SDS011;17580;50.850;4.504;2023-12-22T12:28:26;2.33;;;1.30;;
10191;SDS011;17580;50.850;4.504;2023-12-22T12:30:58;1.33;;;1.23;;
10191;SDS011;17580;50.850;4.504;2023-12-22T12:33:26;2.63;;;1.40;;
10191;SDS011;17580;50.850;4.504;2023-12-22T12:35:54;3.97;;;1.13;;
10191;SDS011;17580;50.850;4.504;2023-12-22T12:38:23;2.83;;;1.13;;
10191;SDS011;17580;50.850;4.504;2023-12-22T12:40:52;3.67;;;1.13;;
10191;SDS011;17580;50.850;4.504;2023-12-22T12:43:19;2.27;;;1.10;;
10191;SDS011;17580;50.850;4.504;2023-12-22T12:45:47;3.10;;;1.07;;
10191;SDS011;17580;50.850;4.504;2023-12-22T12:48:15;4.70;;;1.30;;
10191;SDS011;17580;50.850;4.504;2023-12-22T12:50:43;2.67;;;0.93;;
10191;SDS011;17580;50.850;4.504;2023-12-22T12:53:11;2.80;;;1.17;;
10191;SDS011;17580;50.850;4.504;2023-12-22T12:55:38;4.23;;;1.20;;
10191;SDS011;17580;50.850;4.504;2023-12-22T12:58:07;4.10;;;1.57;;
10191;SDS011;17580;50.850;4.504;2023-12-22T13:00:34;3.33;;;1.40;;
10191;SDS011;17580;50.850;4.504;2023-12-22T13:03:02;5.50;;;1.37;;
10191;SDS011;17580;50.850;4.504;2023-12-22T13:05:30;9.90;;;2.00;;
10191;SDS011;17580;50.850;4.504;2023-12-22T13:08:06;3.43;;;1.30;;
10191;SDS011;17580;50.850;4.504;2023-12-22T13:10:34;3.23;;;1.60;;
10191;SDS011;17580;50.850;4.504;2023-12-22T13:13:01;4.20;;;1.43;;
10191;SDS011;17580;50.850;4.504;2023-12-22T13:15:30;3.37;;;1.20;;
10191;SDS011;17580;50.850;4.504;2023-12-22T13:17:57;4.07;;;1.70;;
10191;SDS011;17580;50.850;4.504;2023-12-22T13:20:24;5.80;;;1.40;;
10191;SDS011;17580;50.850;4.504;2023-12-22T13:22:52;5.37;;;1.37;;
10191;SDS011;17580;50.850;4.504;2023-12-22T13:25:19;4.90;;;1.03;;
10191;SDS011;17580;50.850;4.504;2023-12-22T13:27:48;5.13;;;1.93;;
10191;SDS011;17580;50.850;4.504;2023-12-22T13:33:10;1.67;;;1.27;;
10191;SDS011;17580;50.850;4.504;2023-12-22T13:35:37;3.27;;;1.47;;
10191;SDS011;17580;50.850;4.504;2023-12-22T13:38:05;1.20;;;1.10;;
10191;SDS011;17580;50.850;4.504;2023-12-22T13:40:32;8.17;;;1.83;;
10191;SDS011;17580;50.850;4.504;2023-12-22T13:43:00;3.17;;;1.67;;
10191;SDS011;17580;50.850;4.504;2023-12-22T13:45:28;4.27;;;1.37;;
10191;SDS011;17580;50.850;4.504;2023-12-22T13:47:56;4.37;;;1.50;;
10191;SDS011;17580;50.850;4.504;2023-12-22T13:50:25;5.43;;;1.30;;
10191;SDS011;17580;50.850;4.504;2023-12-22T13:52:52;2.67;;;1.30;;
10191;SDS011;17580;50.850;4.504;2023-12-22T13:55:20;4.43;;;1.60;;
10191;SDS011;17580;50.850;4.504;2023-12-22T13:57:48;3.43;;;1.40;;
10191;SDS011;17580;50.850;4.504;2023-12-22T14:00:25;2.40;;;1.10;;
10191;SDS011;17580;50.850;4.504;2023-12-22T14:02:53;3.80;;;1.40;;
10191;SDS011;17580;50.850;4.504;2023-12-22T14:05:21;3.60;;;1.37;;
10191;SDS011;17580;50.850;4.504;2023-12-22T14:07:50;2.10;;;1.40;;
10191;SDS011;17580;50.850;4.504;2023-12-22T14:10:17;3.30;;;1.20;;
10191;SDS011;17580;50.850;4.504;2023-12-22T14:12:44;4.00;;;1.10;;
10191;SDS011;17580;50.850;4.504;2023-12-22T14:15:12;2.47;;;1.23;;
10191;SDS011;17580;50.850;4.504;2023-12-22T14:17:39;4.63;;;1.33;;
10191;SDS011;17580;50.850;4.504;2023-12-22T14:20:08;3.13;;;1.33;;
10191;SDS011;17580;50.850;4.504;2023-12-22T14:22:36;3.53;;;1.60;;
10191;SDS011;17580;50.850;4.504;2023-12-22T14:25:05;3.87;;;1.40;;
10191;SDS011;17580;50.850;4.504;2023-12-22T14:27:34;5.23;;;1.40;;
10191;SDS011;17580;50.850;4.504;2023-12-22T14:30:01;3.10;;;1.60;;
10191;SDS011;17580;50.850;4.504;2023-12-22T14:32:28;3.40;;;1.70;;
10191;SDS011;17580;50.850;4.504;2023-12-22T14:34:56;3.03;;;2.00;;
10191;SDS011;17580;50.850;4.504;2023-12-22T14:37:23;1.33;;;1.00;;
10191;SDS011;17580;50.850;4.504;2023-12-22T14:39:51;1.70;;;1.57;;
10191;SDS011;17580;50.850;4.504;2023-12-22T14:42:20;2.07;;;1.10;;
10191;SDS011;17580;50.850;4.504;2023-12-22T14:44:47;2.37;;;1.47;;
10191;SDS011;17580;50.850;4.504;2023-12-22T14:47:15;3.60;;;1.20;;
10191;SDS011;17580;50.850;4.504;2023-12-22T14:49:42;6.07;;;1.30;;